Terminal Aerodrome Forecast
Issued by NWS

Home | Current Version | Previous Version | Text Only | Print | Product List | Glossary On
Versions: 1 2 3 4 5 6 7 8 9 10 11 12 13 14 15 16 17 18 19 20 21 22 23 24 25 26
755
FTUS41 KCAR 281120
TAFFVE
TAF
KFVE 281120Z 2812/2912 10008KT 1/4SM FG VV002
     FM281400 16008KT 1SM BR VCSH OVC005
     FM281900 19008KT P6SM BKN015
     FM282100 22010KT P6SM SCT015
     FM290200 25009KT P6SM SKC=

USA.gov is the U.S. government's official web portal to all federal, state and local government web resources and services.